1870 Tropical Storm NOT_NAMED (1870264N11332)


IBTrACS version v04r00. Visit IBTrACS website for data access.
Please direct all questions to the IBTrACS Q and A forum

Storm track - Intensity - Wind Radii - Intensity Data - Source Data - All data

Summary Information

Storm ID 1870264N11332
Start Sep 20 12Z
Max Intensity 50 kt (Sep 25 12Z)
End Oct 1 18Z
ATCF IDs
Track status Best track data.

Storm track plot

Map of storm track

Intensity plots

Map of storm track

Radial wind information

No radial wind information for this storm


Position and Intensity Table

BASIN ISO_TIME_________ NATURE LAT LON MLC WIND
degrees north degrees east kts
NA 1870-09-20 12:00:00 TS 11.00 -27.90 35
NA 15:00:00 TS 10.99 -28.16 35
NA 18:00:00 TS 11.00 -28.40 35
NA 21:00:00 TS 11.04 -28.60 35
NA 1870-09-21 00:00:00 TS 11.10 -28.80 35
NA 03:00:00 TS 11.14 -29.05 35
NA 06:00:00 TS 11.20 -29.30 35
NA 09:00:00 TS 11.29 -29.50 37
NA 12:00:00 TS 11.40 -29.70 40
NA 15:00:00 TS 11.50 -29.95 40
NA 18:00:00 TS 11.60 -30.20 40
NA 21:00:00 TS 11.70 -30.40 40
NA 1870-09-22 00:00:00 TS 11.80 -30.60 40
NA 03:00:00 TS 11.90 -30.85 40
NA 06:00:00 TS 12.00 -31.10 40
NA 09:00:00 TS 12.08 -31.30 40
NA 12:00:00 TS 12.20 -31.50 40
NA 15:00:00 TS 12.44 -31.75 40
NA 18:00:00 TS 12.70 -32.00 40
NA 21:00:00 TS 12.90 -32.20 40
NA 1870-09-23 00:00:00 TS 13.10 -32.40 40
NA 03:00:00 TS 13.35 -32.65 40
NA 06:00:00 TS 13.60 -32.90 40
NA 09:00:00 TS 13.80 -33.10 40
NA 12:00:00 TS 14.00 -33.30 40
NA 15:00:00 TS 14.25 -33.55 40
NA 18:00:00 TS 14.50 -33.80 40
NA 21:00:00 TS 14.71 -34.01 40
NA 1870-09-24 00:00:00 TS 14.90 -34.20 40
NA 03:00:00 TS 15.05 -34.39 40
NA 06:00:00 TS 15.20 -34.60 40
NA 09:00:00 TS 15.36 -34.84 42
NA 12:00:00 TS 15.60 -35.10 45
NA 15:00:00 TS 15.97 -35.36 45
NA 18:00:00 TS 16.40 -35.60 45
NA 21:00:00 TS 16.81 -35.80 45
NA 1870-09-25 00:00:00 TS 17.20 -36.00 45
NA 03:00:00 TS 17.52 -36.25 45
NA 06:00:00 TS 17.80 -36.50 45
NA 09:00:00 TS 18.06 -36.70 47
NA 12:00:00 TS 18.30 -36.90 50
NA 15:00:00 TS 18.55 -37.15 50
NA 18:00:00 TS 18.80 -37.40 50
NA 21:00:00 TS 19.03 -37.60 50
NA 1870-09-26 00:00:00 TS 19.30 -37.80 50
NA 03:00:00 TS 19.69 -38.05 50
NA 06:00:00 TS 20.10 -38.30 50
NA 09:00:00 TS 20.45 -38.51 50
NA 12:00:00 TS 20.80 -38.70 50
NA 15:00:00 TS 21.20 -38.90 50
NA 18:00:00 TS 21.60 -39.10 50
NA 21:00:00 TS 21.96 -39.30 50
NA 1870-09-27 00:00:00 TS 22.30 -39.50 50
NA 03:00:00 TS 22.61 -39.71 50
NA 06:00:00 TS 22.90 -39.90 50
NA 09:00:00 TS 23.20 -40.06 50
NA 12:00:00 TS 23.50 -40.20 50
NA 15:00:00 TS 23.80 -40.36 47
NA 18:00:00 TS 24.10 -40.50 45
NA 21:00:00 TS 24.40 -40.60 45
NA 1870-09-28 00:00:00 TS 24.70 -40.70 45
NA 03:00:00 TS 25.00 -40.86 45
NA 06:00:00 TS 25.30 -41.00 45
NA 09:00:00 TS 25.60 -41.02 45
NA 12:00:00 TS 25.90 -41.00 45
NA 15:00:00 TS 26.21 -41.04 45
NA 18:00:00 TS 26.50 -41.10 45
NA 21:00:00 TS 26.76 -41.16 45
NA 1870-09-29 00:00:00 TS 27.00 -41.20 45
NA 03:00:00 TS 27.25 -41.17 45
NA 06:00:00 TS 27.50 -41.10 45
NA 09:00:00 TS 27.75 -41.06 45
NA 12:00:00 TS 28.00 -41.00 45
NA 15:00:00 TS 28.25 -40.91 42
NA 18:00:00 TS 28.50 -40.80 40
NA 21:00:00 TS 28.69 -40.74 40
NA 1870-09-30 00:00:00 TS 29.00 -40.60 40
NA 03:00:00 TS 29.60 -40.29 40
NA 06:00:00 TS 30.30 -39.90 40
NA 09:00:00 TS 30.87 -39.61 40
NA 12:00:00 TS 31.50 -39.20 40
NA 15:00:00 TS 32.31 -38.54 37
NA 18:00:00 TS 33.20 -37.70 35
NA 21:00:00 TS 34.02 -36.92 35
NA 1870-10-01 00:00:00 TS 34.90 -35.80 35
NA 03:00:00 TS 35.93 -34.00 35
NA 06:00:00 TS 37.00 -31.90 35
NA 09:00:00 TS 38.00 -29.95 35
NA 12:00:00 TS 39.00 -28.00 35
NA 15:00:00 TS 40.00 -26.02 35
NA 18:00:00 ET 41.00 -24.00 35

Source Information

Agency Information
USA
TOKYO
CMA
HKO
NEWDELHI
REUNION
BOM
NADI
WELLINGTON
DS824
TD9636
TD9635
NEUMANN
MLC

All available IBTrACS Data

SEASON BASIN SUBBASIN ISO_TIME_________ NATURE LAT LON DIST2LAND LANDFALL IFLAG USA SSHS MLC LAT MLC LON MLC CLASS MLC WIND STORM SPEED STORM DIR
Year degrees north degrees east km km 1 degrees north degrees east kts kts degrees
1870 NA NA 1870-09-20 12:00:00 TS 11.00 -27.90 1201 1201 _____________O -1 11.00 -27.90 TS 35 5 268
1870 NA NA 15:00:00 TS 10.99 -28.16 1232 1232 _____________P -1 10.99 -28.16 TS 35 5 270
1870 NA NA 18:00:00 TS 11.00 -28.40 1252 1252 _____________O -1 11.00 -28.40 TS 35 4 277
1870 NA NA 21:00:00 TS 11.04 -28.60 1273 1269 _____________P -1 11.04 -28.60 TS 35 4 284
1870 NA NA 1870-09-21 00:00:00 TS 11.10 -28.80 1289 1289 _____________O -1 11.10 -28.80 TS 35 5 283
1870 NA NA 03:00:00 TS 11.14 -29.05 1320 1317 _____________P -1 11.14 -29.05 TS 35 5 282
1870 NA NA 06:00:00 TS 11.20 -29.30 1337 1337 _____________O -1 11.20 -29.30 TS 35 5 289
1870 NA NA 09:00:00 TS 11.29 -29.50 1355 1355 _____________P -1 11.29 -29.50 TS 37 4 297
1870 NA NA 12:00:00 TS 11.40 -29.70 1372 1372 _____________O -1 11.40 -29.70 TS 40 5 295
1870 NA NA 15:00:00 TS 11.50 -29.95 1390 1400 _____________P -1 11.50 -29.95 TS 40 5 292
1870 NA NA 18:00:00 TS 11.60 -30.20 1418 1418 _____________O -1 11.60 -30.20 TS 40 5 294
1870 NA NA 21:00:00 TS 11.70 -30.40 1436 1436 _____________P -1 11.70 -30.40 TS 40 4 297
1870 NA NA 1870-09-22 00:00:00 TS 11.80 -30.60 1455 1455 _____________O -1 11.80 -30.60 TS 40 5 294
1870 NA NA 03:00:00 TS 11.90 -30.85 1473 1484 _____________P -1 11.90 -30.85 TS 40 5 292
1870 NA NA 06:00:00 TS 12.00 -31.10 1502 1502 _____________O -1 12.00 -31.10 TS 40 5 292
1870 NA NA 09:00:00 TS 12.08 -31.30 1521 1521 _____________P -1 12.08 -31.30 TS 40 4 297
1870 NA NA 12:00:00 TS 12.20 -31.50 1540 1540 _____________O -1 12.20 -31.50 TS 40 6 309
1870 NA NA 15:00:00 TS 12.44 -31.75 1556 1556 _____________P -1 12.44 -31.75 TS 40 7 316
1870 NA NA 18:00:00 TS 12.70 -32.00 1582 1582 _____________O -1 12.70 -32.00 TS 40 6 317
1870 NA NA 21:00:00 TS 12.90 -32.20 1600 1600 _____________P -1 12.90 -32.20 TS 40 6 316
1870 NA NA 1870-09-23 00:00:00 TS 13.10 -32.40 1618 1618 _____________O -1 13.10 -32.40 TS 40 6 316
1870 NA NA 03:00:00 TS 13.35 -32.65 1635 1635 _____________P -1 13.35 -32.65 TS 40 7 316
1870 NA NA 06:00:00 TS 13.60 -32.90 1665 1665 _____________O -1 13.60 -32.90 TS 40 6 316
1870 NA NA 09:00:00 TS 13.80 -33.10 1684 1684 _____________P -1 13.80 -33.10 TS 40 6 316
1870 NA NA 12:00:00 TS 14.00 -33.30 1704 1704 _____________O -1 14.00 -33.30 TS 40 6 316
1870 NA NA 15:00:00 TS 14.25 -33.55 1723 1723 _____________P -1 14.25 -33.55 TS 40 7 316
1870 NA NA 18:00:00 TS 14.50 -33.80 1754 1754 _____________O -1 14.50 -33.80 TS 40 6 316
1870 NA NA 21:00:00 TS 14.71 -34.01 1775 1775 _____________P -1 14.71 -34.01 TS 40 6 316
1870 NA NA 1870-09-24 00:00:00 TS 14.90 -34.20 1795 1795 _____________O -1 14.90 -34.20 TS 40 5 312
1870 NA NA 03:00:00 TS 15.05 -34.39 1817 1816 _____________P -1 15.05 -34.39 TS 40 5 308
1870 NA NA 06:00:00 TS 15.20 -34.60 1838 1838 _____________O -1 15.20 -34.60 TS 40 5 306
1870 NA NA 09:00:00 TS 15.36 -34.84 1859 1859 _____________P -1 15.36 -34.84 TS 42 6 310
1870 NA NA 12:00:00 TS 15.60 -35.10 1891 1891 _____________O -1 15.60 -35.10 TS 45 8 321
1870 NA NA 15:00:00 TS 15.97 -35.36 1925 1925 _____________P -1 15.97 -35.36 TS 45 9 329
1870 NA NA 18:00:00 TS 16.40 -35.60 1948 1948 _____________O -1 16.40 -35.60 TS 45 10 333
1870 NA NA 21:00:00 TS 16.81 -35.80 1972 1972 _____________P -1 16.81 -35.80 TS 45 9 334
1870 NA NA 1870-09-25 00:00:00 TS 17.20 -36.00 1997 1997 _____________O -1 17.20 -36.00 TS 45 8 329
1870 NA NA 03:00:00 TS 17.52 -36.25 2032 2032 _____________P -1 17.52 -36.25 TS 45 8 322
1870 NA NA 06:00:00 TS 17.80 -36.50 2057 2057 _____________O -1 17.80 -36.50 TS 45 7 321
1870 NA NA 09:00:00 TS 18.06 -36.70 2075 2075 _____________P -1 18.06 -36.70 TS 47 6 323
1870 NA NA 12:00:00 TS 18.30 -36.90 2092 2092 _____________O -1 18.30 -36.90 TS 50 7 319
1870 NA NA 15:00:00 TS 18.55 -37.15 2117 2117 _____________P -1 18.55 -37.15 TS 50 7 316
1870 NA NA 18:00:00 TS 18.80 -37.40 2134 2132 _____________O -1 18.80 -37.40 TS 50 6 318
1870 NA NA 21:00:00 TS 19.03 -37.60 2151 2149 _____________P -1 19.03 -37.60 TS 50 6 323
1870 NA NA 1870-09-26 00:00:00 TS 19.30 -37.80 2167 2165 _____________O -1 19.30 -37.80 TS 50 8 327
1870 NA NA 03:00:00 TS 19.69 -38.05 2182 2182 _____________P -1 19.69 -38.05 TS 50 9 329
1870 NA NA 06:00:00 TS 20.10 -38.30 2208 2207 _____________O -1 20.10 -38.30 TS 50 9 331
1870 NA NA 09:00:00 TS 20.45 -38.51 2225 2224 _____________P -1 20.45 -38.51 TS 50 8 332
1870 NA NA 12:00:00 TS 20.80 -38.70 2243 2242 _____________O -1 20.80 -38.70 TS 50 8 334
1870 NA NA 15:00:00 TS 21.20 -38.90 2261 2260 _____________P -1 21.20 -38.90 TS 50 9 335
1870 NA NA 18:00:00 TS 21.60 -39.10 2280 2279 _____________O -1 21.60 -39.10 TS 50 9 334
1870 NA NA 21:00:00 TS 21.96 -39.30 2298 2298 _____________P -1 21.96 -39.30 TS 50 8 332
1870 NA NA 1870-09-27 00:00:00 TS 22.30 -39.50 2316 2316 _____________O -1 22.30 -39.50 TS 50 7 330
1870 NA NA 03:00:00 TS 22.61 -39.71 2335 2335 _____________P -1 22.61 -39.71 TS 50 7 328
1870 NA NA 06:00:00 TS 22.90 -39.90 2355 2354 _____________O -1 22.90 -39.90 TS 50 7 332
1870 NA NA 09:00:00 TS 23.20 -40.06 2374 2374 _____________P -1 23.20 -40.06 TS 50 7 335
1870 NA NA 12:00:00 TS 23.50 -40.20 2384 2384 _____________O -1 23.50 -40.20 TS 50 7 335
1870 NA NA 15:00:00 TS 23.80 -40.36 2403 2396 _____________P -1 23.80 -40.36 TS 47 7 335
1870 NA NA 18:00:00 TS 24.10 -40.50 2403 2400 _____________O -1 24.10 -40.50 TS 45 6 340
1870 NA NA 21:00:00 TS 24.40 -40.60 2404 2401 _____________P -1 24.40 -40.60 TS 45 6 343
1870 NA NA 1870-09-28 00:00:00 TS 24.70 -40.70 2405 2402 _____________O -1 24.70 -40.70 TS 45 6 338
1870 NA NA 03:00:00 TS 25.00 -40.86 2416 2411 _____________P -1 25.00 -40.86 TS 45 7 336
1870 NA NA 06:00:00 TS 25.30 -41.00 2418 2410 _____________O -1 25.30 -41.00 TS 45 6 347
1870 NA NA 09:00:00 TS 25.60 -41.02 2410 2403 _____________P -1 25.60 -41.02 TS 45 6 1
1870 NA NA 12:00:00 TS 25.90 -41.00 2403 2397 _____________O -1 25.90 -41.00 TS 45 6 358
1870 NA NA 15:00:00 TS 26.21 -41.04 2397 2397 _____________P -1 26.21 -41.04 TS 45 6 352
1870 NA NA 18:00:00 TS 26.50 -41.10 2400 2396 _____________O -1 26.50 -41.10 TS 45 6 349
1870 NA NA 21:00:00 TS 26.76 -41.16 2404 2401 _____________P -1 26.76 -41.16 TS 45 5 350
1870 NA NA 1870-09-29 00:00:00 TS 27.00 -41.20 2401 2397 _____________O -1 27.00 -41.20 TS 45 5 359
1870 NA NA 03:00:00 TS 27.25 -41.17 2392 2375 _____________P -1 27.25 -41.17 TS 45 5 10
1870 NA NA 06:00:00 TS 27.50 -41.10 2375 2354 _____________O -1 27.50 -41.10 TS 45 5 11
1870 NA NA 09:00:00 TS 27.75 -41.06 2354 2328 _____________P -1 27.75 -41.06 TS 45 5 10
1870 NA NA 12:00:00 TS 28.00 -41.00 2328 2311 _____________O -1 28.00 -41.00 TS 45 5 15
1870 NA NA 15:00:00 TS 28.25 -40.91 2301 2285 _____________P -1 28.25 -40.91 TS 42 5 20
1870 NA NA 18:00:00 TS 28.50 -40.80 2285 2264 _____________O -1 28.50 -40.80 TS 40 5 19
1870 NA NA 21:00:00 TS 28.69 -40.74 2269 2243 _____________P -1 28.69 -40.74 TS 40 5 20
1870 NA NA 1870-09-30 00:00:00 TS 29.00 -40.60 2243 2195 _____________O -1 29.00 -40.60 TS 40 10 23
1870 NA NA 03:00:00 TS 29.60 -40.29 2195 2144 _____________P -1 29.60 -40.29 TS 40 14 25
1870 NA NA 06:00:00 TS 30.30 -39.90 2144 2104 _____________O -1 30.30 -39.90 TS 40 14 25
1870 NA NA 09:00:00 TS 30.87 -39.61 2099 2061 _____________P -1 30.87 -39.61 TS 40 13 27
1870 NA NA 12:00:00 TS 31.50 -39.20 2061 2016 _____________O -1 31.50 -39.20 TS 40 17 32
1870 NA NA 15:00:00 TS 32.31 -38.54 2022 1983 _____________P -1 32.31 -38.54 TS 37 21 37
1870 NA NA 18:00:00 TS 33.20 -37.70 1983 1952 _____________O -1 33.20 -37.70 TS 35 22 38
1870 NA NA 21:00:00 TS 34.02 -36.92 1958 1942 _____________P -1 34.02 -36.92 TS 35 23 43
1870 NA NA 1870-10-01 00:00:00 TS 34.90 -35.80 1937 1830 _____________O -1 34.90 -35.80 TS 35 31 51
1870 NA NA 03:00:00 TS 35.93 -34.00 1822 1711 _____________P -1 35.93 -34.00 TS 35 38 56
1870 NA NA 06:00:00 TS 37.00 -31.90 1708 1632 _____________O -1 37.00 -31.90 TS 35 38 57
1870 NA NA 09:00:00 TS 38.00 -29.95 1632 1574 _____________P -1 38.00 -29.95 TS 35 37 57
1870 NA NA 12:00:00 TS 39.00 -28.00 1576 1426 _____________O -1 39.00 -28.00 TS 35 36 57
1870 NA NA 15:00:00 TS 40.00 -26.02 1417 1239 _____________P -1 40.00 -26.02 TS 35 37 57
1870 NA NA 18:00:00 ET 41.00 -24.00 1228 _____________O -1 41.00 -24.00 EX 35 36 57